Time;durP1;ratioP1;P1;durP2;ratioP2;P2;SDS_P1;SDS_P2;PMS_P1;PMS_P2;Temp;Humidity;BMP_temperature;BMP_pressure;BME280_temperature;BME280_humidity;BME280_pressure;Samples;Min_cycle;Max_cycle;Signal;HPM_P1;HPM_P2
2022/06/21 00:01:28;;;;;;;10.45;2.33;;;13.00;99.90;;;;;;5085938;28;20119;-79
2022/06/21 00:03:55;;;;;;;11.50;2.60;;;13.00;99.90;;;;;;5087841;28;20066;-78
2022/06/21 00:06:23;;;;;;;11.10;2.90;;;13.00;99.90;;;;;;5084250;28;20327;-79
2022/06/21 00:08:49;;;;;;;9.45;2.20;;;13.00;99.90;;;;;;5071797;28;20050;-79
2022/06/21 00:11:31;;;;;;;11.50;2.30;;;13.00;99.90;;;;;;5053242;28;20056;-78
2022/06/21 00:13:57;;;;;;;11.55;2.90;;;13.00;99.90;;;;;;5070040;28;20110;-78
2022/06/21 00:16:26;;;;;;;8.57;2.38;;;12.90;99.90;;;;;;5070076;28;20040;-78
2022/06/21 00:18:52;;;;;;;10.23;2.67;;;12.90;99.90;;;;;;5067746;28;20039;-78
2022/06/21 00:21:23;;;;;;;9.88;2.50;;;12.90;99.90;;;;;;5086237;28;20036;-79
2022/06/21 00:23:52;;;;;;;9.68;2.45;;;12.80;99.90;;;;;;5070279;28;20111;-78
2022/06/21 00:26:21;;;;;;;9.43;2.53;;;12.80;99.90;;;;;;5053229;28;20474;-78
2022/06/21 00:28:47;;;;;;;14.95;2.67;;;12.80;99.90;;;;;;5081662;28;20410;-78
2022/06/21 00:31:17;;;;;;;12.00;2.83;;;12.70;99.90;;;;;;5064572;28;20048;-78
2022/06/21 00:33:43;;;;;;;14.70;3.33;;;12.70;99.90;;;;;;5057630;28;20120;-78
2022/06/21 00:36:24;;;;;;;11.63;2.72;;;12.70;99.90;;;;;;5077994;28;20047;-78
2022/06/21 00:38:51;;;;;;;9.93;2.90;;;12.60;99.90;;;;;;5085976;28;20410;-78
2022/06/21 00:41:21;;;;;;;9.77;2.47;;;12.60;99.90;;;;;;5067399;28;20047;-78
2022/06/21 00:43:52;;;;;;;11.40;2.60;;;12.50;99.90;;;;;;5084954;28;20097;-78
2022/06/21 00:46:37;;;;;;;10.40;2.55;;;12.50;99.90;;;;;;5068531;28;20036;-78
2022/06/21 00:49:08;;;;;;;11.20;2.95;;;12.50;99.90;;;;;;5080686;28;20127;-78
2022/06/21 00:51:39;;;;;;;11.20;2.60;;;13.50;99.90;;;;;;5081079;28;20059;-78
2022/06/21 00:54:46;;;;;;;9.70;2.60;;;12.40;99.90;;;;;;5056221;28;20045;-78
2022/06/21 00:57:16;;;;;;;10.27;2.20;;;12.40;99.90;;;;;;5034682;28;20400;-78
2022/06/21 00:59:42;;;;;;;8.30;2.20;;;12.40;99.90;;;;;;5058939;28;20056;-78
2022/06/21 01:02:28;;;;;;;13.38;2.60;;;12.40;99.90;;;;;;5064197;28;20052;-79
2022/06/21 01:04:57;;;;;;;12.18;2.50;;;12.40;99.90;;;;;;5078530;28;20047;-79
2022/06/21 01:07:23;;;;;;;10.75;2.97;;;12.40;99.90;;;;;;5084499;28;20048;-79
2022/06/21 01:10:07;;;;;;;11.57;2.90;;;12.40;99.90;;;;;;5047620;28;20071;-78
2022/06/21 01:12:53;;;;;;;9.02;2.38;;;12.40;99.90;;;;;;5082243;28;20044;-78
2022/06/21 01:15:27;;;;;;;8.63;2.30;;;12.40;99.90;;;;;;5058487;28;20064;-78
2022/06/21 01:17:57;;;;;;;9.82;2.55;;;12.40;99.90;;;;;;5080064;28;20112;-78
2022/06/21 01:20:26;;;;;;;8.57;2.50;;;12.40;99.90;;;;;;5066589;28;20036;-79
2022/06/21 01:23:02;;;;;;;9.02;2.42;;;12.40;99.90;;;;;;5069534;28;20044;-79
2022/06/21 01:25:46;;;;;;;13.13;3.13;;;12.40;99.90;;;;;;5069877;28;20130;-78
2022/06/21 01:28:12;;;;;;;11.27;3.00;;;12.30;99.90;;;;;;5069215;28;20498;-78
2022/06/21 01:30:38;;;;;;;13.10;2.90;;;12.30;99.90;;;;;;5030579;28;20079;-79
2022/06/21 01:33:05;;;;;;;11.70;3.03;;;12.30;99.90;;;;;;5062113;28;20036;-78
2022/06/21 01:35:40;;;;;;;11.63;3.25;;;12.30;99.90;;;;;;5069538;28;20040;-79
2022/06/21 01:38:12;;;;;;;8.95;2.78;;;12.30;99.90;;;;;;5053580;28;20044;-78
2022/06/21 01:40:44;;;;;;;14.23;3.00;;;12.20;99.90;;;;;;5085122;28;20370;-78
2022/06/21 01:43:15;;;;;;;12.32;3.03;;;12.20;99.90;;;;;;5068439;28;20047;-79
2022/06/21 01:45:57;;;;;;;8.88;2.95;;;12.20;99.90;;;;;;5070596;28;20040;-78
2022/06/21 01:48:27;;;;;;;9.43;3.28;;;12.20;99.90;;;;;;5085069;28;20490;-78
2022/06/21 01:51:01;;;;;;;11.80;3.00;;;12.20;99.90;;;;;;5077816;28;20090;-78
2022/06/21 01:53:28;;;;;;;8.75;2.75;;;12.10;99.90;;;;;;5069440;28;20109;-78
2022/06/21 01:55:57;;;;;;;11.95;2.90;;;12.10;99.90;;;;;;5036022;28;20539;-78
2022/06/21 01:58:29;;;;;;;9.43;3.10;;;12.10;99.90;;;;;;5080773;28;20072;-79
2022/06/21 02:01:04;;;;;;;10.73;3.22;;;12.10;99.90;;;;;;5068815;28;20048;-78
2022/06/21 02:03:33;;;;;;;10.50;2.92;;;12.00;99.90;;;;;;5065861;28;20135;-78
2022/06/21 02:06:02;;;;;;;12.55;3.20;;;12.00;99.90;;;;;;5067939;28;20052;-78
2022/06/21 02:08:50;;;;;;;8.65;2.75;;;12.00;99.90;;;;;;5071231;28;20123;-79
2022/06/21 02:11:24;;;;;;;11.20;3.38;;;12.00;99.90;;;;;;5057566;28;21382;-78
2022/06/21 02:16:47;;;;;;;10.10;3.28;;;12.10;99.90;;;;;;5078797;28;20032;-78
2022/06/21 02:19:38;;;;;;;11.68;3.42;;;12.10;99.90;;;;;;5086579;28;20193;-78
2022/06/21 02:22:05;;;;;;;11.85;3.30;;;12.00;99.90;;;;;;5085228;28;20421;-78
2022/06/21 02:24:31;;;;;;;12.57;3.63;;;12.00;99.90;;;;;;5060358;28;20048;-78
2022/06/21 02:27:01;;;;;;;11.13;3.50;;;12.00;99.90;;;;;;5042263;28;20072;-79
2022/06/21 02:29:29;;;;;;;14.13;4.38;;;12.00;99.90;;;;;;5075913;28;20084;-78
2022/06/21 02:31:56;;;;;;;11.88;4.13;;;12.00;99.90;;;;;;5069208;28;20052;-79
2022/06/21 02:34:28;;;;;;;12.95;4.60;;;12.00;99.90;;;;;;5069034;28;20343;-78
2022/06/21 02:37:00;;;;;;;10.73;3.60;;;12.00;99.90;;;;;;5084983;28;20044;-78
2022/06/21 02:39:29;;;;;;;13.30;4.40;;;11.90;99.90;;;;;;5062180;28;20094;-78
2022/06/21 02:42:13;;;;;;;12.77;4.40;;;11.90;99.90;;;;;;5079312;28;20048;-78
2022/06/21 02:44:47;;;;;;;11.98;4.25;;;11.90;99.90;;;;;;5069755;28;20102;-78
2022/06/21 02:47:17;;;;;;;12.43;3.80;;;11.80;99.90;;;;;;5064767;28;20047;-78
2022/06/21 02:49:56;;;;;;;13.23;4.40;;;11.80;99.90;;;;;;5070972;28;20036;-78
2022/06/21 02:52:27;;;;;;;11.57;4.97;;;11.80;99.90;;;;;;5081306;28;20035;-78
2022/06/21 02:54:58;;;;;;;11.35;4.75;;;11.70;99.90;;;;;;5089630;28;20040;-78
2022/06/21 02:57:49;;;;;;;13.35;5.07;;;11.80;99.90;;;;;;5070858;28;20115;-78
2022/06/21 03:00:18;;;;;;;14.02;5.35;;;11.70;99.90;;;;;;5083837;28;20043;-78
2022/06/21 03:02:44;;;;;;;14.57;5.22;;;11.70;99.90;;;;;;5073114;28;20123;-78
2022/06/21 03:05:19;;;;;;;14.85;5.55;;;11.70;99.90;;;;;;5047163;28;20042;-78
2022/06/21 03:07:54;;;;;;;10.80;4.47;;;11.70;99.90;;;;;;5072253;28;20118;-78
2022/06/21 03:10:30;;;;;;;14.05;4.88;;;11.70;99.90;;;;;;5071625;28;20085;-78
2022/06/21 03:13:03;;;;;;;13.68;3.88;;;11.70;99.90;;;;;;5066744;28;20044;-78
2022/06/21 03:15:29;;;;;;;9.95;3.63;;;11.70;99.90;;;;;;5072130;28;20324;-78
2022/06/21 03:18:01;;;;;;;10.38;3.63;;;10.60;99.90;;;;;;5057032;28;20056;-78
2022/06/21 03:20:29;;;;;;;11.13;3.70;;;11.60;99.90;;;;;;5086821;28;20040;-79
2022/06/21 03:22:56;;;;;;;11.70;3.50;;;11.70;99.90;;;;;;5062901;28;20043;-78
2022/06/21 03:25:30;;;;;;;16.42;4.03;;;11.60;99.90;;;;;;5089907;28;20401;-78
2022/06/21 03:27:59;;;;;;;9.13;3.50;;;11.70;99.90;;;;;;5087058;28;20044;-79
2022/06/21 03:30:31;;;;;;;12.15;3.58;;;11.70;99.90;;;;;;5066955;28;20035;-79
2022/06/21 03:32:58;;;;;;;12.47;3.63;;;11.70;99.90;;;;;;5074359;28;20044;-78
2022/06/21 03:35:26;;;;;;;12.35;3.42;;;11.70;99.90;;;;;;5051482;28;20173;-78
2022/06/21 03:37:52;;;;;;;10.40;4.00;;;11.70;99.90;;;;;;5069961;28;20036;-78
2022/06/21 03:43:29;;;;;;;11.90;3.85;;;11.70;99.90;;;;;;5087347;28;20040;-78
2022/06/21 03:46:00;;;;;;;12.52;4.10;;;11.60;99.90;;;;;;5070812;28;20036;-78
2022/06/21 03:48:38;;;;;;;14.20;3.65;;;11.60;99.90;;;;;;5075992;28;20074;-78
2022/06/21 03:51:22;;;;;;;10.60;4.15;;;11.60;99.90;;;;;;5067800;28;20051;-78
2022/06/21 03:54:10;;;;;;;11.95;3.80;;;11.60;99.90;;;;;;5088146;28;20071;-78
2022/06/21 03:57:00;;;;;;;9.95;4.00;;;11.60;99.90;;;;;;5069601;28;20063;-78
2022/06/21 03:59:46;;;;;;;10.77;4.05;;;11.60;99.90;;;;;;5070394;28;20044;-78
2022/06/21 04:02:38;;;;;;;12.15;4.10;;;11.70;99.90;;;;;;5085735;28;20521;-79
2022/06/21 04:05:18;;;;;;;11.87;3.97;;;11.70;99.90;;;;;;5071033;28;20409;-78
2022/06/21 04:07:49;;;;;;;13.10;4.47;;;11.90;99.90;;;;;;5086040;28;20194;-78
2022/06/21 04:10:17;;;;;;;12.30;4.55;;;11.80;99.90;;;;;;5084657;28;20143;-78
2022/06/21 04:13:11;;;;;;;11.90;4.15;;;11.90;99.90;;;;;;5068142;28;20036;-77
2022/06/21 04:15:44;;;;;;;;;;;11.90;99.90;;;;;;5051596;28;20041;-78
2022/06/21 04:18:36;;;;;;;11.85;4.50;;;11.90;99.90;;;;;;5067689;28;19927;-78
2022/06/21 04:21:09;;;;;;;10.80;4.13;;;11.90;99.90;;;;;;5068318;28;20040;-78
2022/06/21 04:23:57;;;;;;;9.35;4.07;;;12.00;99.90;;;;;;5064983;28;20043;-78
2022/06/21 04:26:42;;;;;;;12.15;5.07;;;12.00;99.90;;;;;;5055653;28;20112;-79
2022/06/21 04:29:32;;;;;;;12.43;4.53;;;12.10;99.90;;;;;;5070857;28;20093;-79
2022/06/21 04:32:06;;;;;;;10.82;3.97;;;12.20;99.90;;;;;;5085886;28;20119;-78
2022/06/21 04:34:46;;;;;;;12.68;4.68;;;12.20;99.90;;;;;;5080937;28;20036;-78
2022/06/21 04:37:23;;;;;;;12.45;4.05;;;12.30;99.90;;;;;;5085908;28;20228;-79
2022/06/21 04:40:00;;;;;;;9.00;4.07;;;12.40;99.90;;;;;;5050608;28;20047;-79
2022/06/21 04:42:36;;;;;;;9.85;4.13;;;13.30;99.90;;;;;;5065537;28;20059;-78
2022/06/21 04:45:17;;;;;;;11.60;4.07;;;12.50;99.90;;;;;;5084472;28;20040;-78
2022/06/21 04:48:22;;;;;;;12.55;4.25;;;12.60;99.90;;;;;;5072784;28;20343;-78
2022/06/21 04:51:03;;;;;;;11.10;3.83;;;12.60;99.90;;;;;;5082592;28;20135;-78
2022/06/21 04:53:44;;;;;;;11.82;4.22;;;12.90;99.90;;;;;;5085769;28;20028;-79
2022/06/21 04:56:39;;;;;;;11.73;3.80;;;12.80;99.90;;;;;;5084518;28;20036;-79
2022/06/21 04:59:15;;;;;;;9.88;3.65;;;12.80;99.90;;;;;;5069180;28;20039;-79
2022/06/21 05:01:41;;;;;;;12.25;4.93;;;12.90;99.90;;;;;;5068801;28;20119;-78
2022/06/21 05:04:18;;;;;;;11.00;4.30;;;13.10;99.90;;;;;;5062863;28;20093;-78
2022/06/21 05:06:45;;;;;;;11.77;4.03;;;13.30;99.90;;;;;;5081937;28;20035;-78
2022/06/21 05:09:15;;;;;;;11.27;3.28;;;13.40;99.90;;;;;;5035610;28;20102;-78
2022/06/21 05:11:42;;;;;;;12.20;4.15;;;13.40;99.90;;;;;;5069043;28;20036;-78
2022/06/21 05:14:19;;;;;;;10.30;3.70;;;13.50;99.90;;;;;;5033933;28;20032;-79
2022/06/21 05:16:45;;;;;;;10.70;3.67;;;13.60;99.90;;;;;;5051113;28;20051;-78
2022/06/21 05:19:21;;;;;;;10.63;3.92;;;13.70;99.90;;;;;;5041555;28;20110;-78
2022/06/21 05:21:55;;;;;;;10.55;3.35;;;13.70;99.90;;;;;;5079475;28;20040;-78
2022/06/21 05:24:21;;;;;;;12.20;3.92;;;13.80;99.90;;;;;;5062607;28;20047;-78
2022/06/21 05:27:09;;;;;;;9.20;3.05;;;13.80;99.90;;;;;;5060078;28;20043;-79
2022/06/21 05:29:44;;;;;;;8.60;3.20;;;13.80;99.90;;;;;;5066926;28;20419;-79
2022/06/21 05:32:17;;;;;;;10.38;3.42;;;13.80;99.90;;;;;;5066987;28;20037;-78
2022/06/21 05:34:49;;;;;;;10.43;3.20;;;13.80;99.90;;;;;;5073998;28;20060;-79
2022/06/21 05:37:34;;;;;;;10.20;3.30;;;13.80;99.90;;;;;;5085523;28;20046;-78
2022/06/21 05:40:13;;;;;;;9.43;3.38;;;14.00;99.90;;;;;;5057764;28;20111;-77
2022/06/21 05:42:39;;;;;;;8.85;2.90;;;13.90;99.90;;;;;;5054248;28;20246;-77
2022/06/21 05:45:14;;;;;;;9.20;2.80;;;14.10;99.90;;;;;;5056060;28;20032;-77
2022/06/21 05:47:51;;;;;;;10.05;3.05;;;14.20;99.90;;;;;;5050725;28;20060;-77
2022/06/21 05:50:22;;;;;;;9.60;2.85;;;14.30;99.90;;;;;;5050571;28;20491;-78
2022/06/21 05:52:55;;;;;;;8.32;2.65;;;14.50;99.90;;;;;;5050752;28;20359;-78
2022/06/21 05:55:40;;;;;;;8.43;2.40;;;14.60;99.90;;;;;;5067151;28;20147;-78
2022/06/21 05:58:37;;;;;;;9.98;2.80;;;14.70;99.90;;;;;;5066866;28;20069;-78
2022/06/21 06:01:27;;;;;;;10.23;2.95;;;14.80;99.90;;;;;;5048735;28;20129;-78
2022/06/21 06:03:59;;;;;;;8.18;2.42;;;14.90;99.90;;;;;;5087253;28;20052;-77
2022/06/21 06:06:34;;;;;;;9.75;2.40;;;15.00;99.90;;;;;;5087170;28;20044;-78
2022/06/21 06:09:06;;;;;;;7.68;2.38;;;15.10;99.90;;;;;;5069940;28;20529;-78
2022/06/21 06:11:58;;;;;;;8.52;2.33;;;15.20;99.90;;;;;;5071976;28;20056;-78
2022/06/21 06:14:44;;;;;;;8.48;2.22;;;15.30;99.90;;;;;;5070384;28;20032;-78
2022/06/21 06:17:30;;;;;;;9.35;2.35;;;15.40;99.90;;;;;;5070700;28;20041;-78
2022/06/21 06:20:11;;;;;;;10.70;3.17;;;15.50;99.90;;;;;;5053885;28;20418;-78
2022/06/21 06:22:42;;;;;;;9.55;2.70;;;15.60;99.90;;;;;;5054429;28;20048;-78
2022/06/21 06:25:32;;;;;;;7.47;2.30;;;15.60;99.90;;;;;;5053885;28;20107;-78
2022/06/21 06:28:20;;;;;;;7.00;2.13;;;15.60;99.90;;;;;;5070390;28;20036;-78
2022/06/21 06:31:14;;;;;;;9.02;2.50;;;15.80;99.90;;;;;;5070286;28;20047;-77
2022/06/21 06:33:45;;;;;;;8.93;2.58;;;15.90;99.90;;;;;;5070040;28;20044;-77
2022/06/21 06:36:17;;;;;;;9.90;2.42;;;15.80;99.90;;;;;;5070468;28;20041;-78
2022/06/21 06:38:43;;;;;;;8.20;2.33;;;15.80;99.90;;;;;;5060350;28;20408;-78
2022/06/21 06:41:20;;;;;;;9.48;2.50;;;16.00;99.90;;;;;;5057267;28;20095;-77
2022/06/21 06:44:15;;;;;;;9.02;2.63;;;16.00;99.90;;;;;;5066042;28;20051;-78
2022/06/21 06:46:44;;;;;;;8.88;2.20;;;15.80;99.90;;;;;;5069730;28;20098;-78
2022/06/21 06:49:51;;;;;;;7.85;2.10;;;15.70;99.90;;;;;;5052623;28;20178;-78
2022/06/21 06:52:25;;;;;;;7.85;2.50;;;15.50;99.90;;;;;;5018193;28;20041;-77
2022/06/21 06:55:21;;;;;;;9.60;2.55;;;15.50;99.90;;;;;;5046635;28;20577;-77
2022/06/21 06:58:00;;;;;;;6.78;2.17;;;15.90;99.90;;;;;;5069741;28;20105;-78
2022/06/21 07:00:32;;;;;;;7.47;2.25;;;16.20;99.90;;;;;;5078118;28;20036;-77
2022/06/21 07:03:27;;;;;;;9.27;2.40;;;16.40;99.90;;;;;;5090056;28;20036;-77
2022/06/21 07:06:13;;;;;;;10.48;2.47;;;16.50;99.90;;;;;;5088517;28;20051;-77
2022/06/21 07:09:02;;;;;;;10.07;2.30;;;16.60;99.90;;;;;;5042019;28;20356;-78
2022/06/21 07:11:37;;;;;;;7.57;2.40;;;16.80;99.90;;;;;;5085978;28;20044;-77
2022/06/21 07:14:04;;;;;;;9.88;2.58;;;16.80;99.90;;;;;;5052804;28;20036;-77
2022/06/21 07:16:33;;;;;;;8.38;2.38;;;16.80;99.90;;;;;;5053086;28;20040;-78
2022/06/21 07:19:01;;;;;;;8.77;2.50;;;16.80;99.90;;;;;;5069645;28;20093;-78
2022/06/21 07:21:27;;;;;;;8.70;2.60;;;16.80;99.90;;;;;;5066246;28;20044;-77
2022/06/21 07:23:57;;;;;;;7.65;2.50;;;16.80;99.90;;;;;;5052523;28;20071;-78
2022/06/21 07:26:56;;;;;;;6.47;2.00;;;16.90;99.90;;;;;;5052512;28;20083;-77
2022/06/21 07:29:28;;;;;;;7.45;2.13;;;17.00;99.90;;;;;;5067758;28;20039;-78
2022/06/21 07:31:59;;;;;;;8.18;2.35;;;17.10;99.90;;;;;;5088780;28;20071;-77
2022/06/21 07:34:42;;;;;;;7.13;2.25;;;17.20;99.90;;;;;;5072082;28;20085;-78
2022/06/21 07:37:13;;;;;;;;;;;17.40;99.90;;;;;;5072979;28;20036;-78
2022/06/21 07:39:49;;;;;;;9.45;2.42;;;17.50;99.90;;;;;;5072205;28;19916;-78
2022/06/21 07:42:20;;;;;;;7.32;2.13;;;17.60;99.90;;;;;;5089083;28;20044;-77
2022/06/21 07:44:53;;;;;;;8.48;2.17;;;17.80;99.90;;;;;;5068901;28;20491;-77
2022/06/21 07:47:25;;;;;;;9.27;2.38;;;17.90;99.90;;;;;;5052427;28;20075;-78
2022/06/21 07:49:55;;;;;;;8.02;2.53;;;18.00;99.90;;;;;;5052226;28;20558;-78
2022/06/21 07:52:29;;;;;;;9.40;3.10;;;18.00;99.90;;;;;;5052428;28;20445;-77
2022/06/21 07:55:01;;;;;;;7.78;2.25;;;18.10;99.90;;;;;;5051939;28;20033;-79
2022/06/21 07:57:39;;;;;;;7.35;2.40;;;18.20;99.90;;;;;;5052552;28;20098;-77
2022/06/21 08:00:11;;;;;;;9.73;2.20;;;18.20;99.90;;;;;;5052141;28;20040;-78
2022/06/21 08:08:47;;;;;;;6.85;2.25;;;18.30;99.90;;;;;;5076989;28;20044;-78
2022/06/21 08:11:24;;;;;;;7.63;2.20;;;18.30;99.90;;;;;;5064733;28;20048;-78
2022/06/21 08:13:49;;;;;;;8.90;2.72;;;18.40;99.90;;;;;;5052932;28;20413;-77
2022/06/21 08:16:18;;;;;;;11.18;2.60;;;18.50;99.90;;;;;;5052443;28;20139;-77
2022/06/21 08:18:54;;;;;;;10.43;2.70;;;18.60;99.90;;;;;;5051635;28;20044;-77
2022/06/21 08:21:51;;;;;;;9.02;2.30;;;18.70;99.90;;;;;;5051758;28;20098;-77
2022/06/21 08:24:20;;;;;;;7.97;2.40;;;18.50;99.90;;;;;;5068156;28;20127;-78
2022/06/21 08:27:04;;;;;;;8.20;2.35;;;18.70;99.90;;;;;;5052530;28;20452;-79
2022/06/21 08:29:43;;;;;;;6.57;2.10;;;18.80;99.90;;;;;;5051416;28;20056;-78
2022/06/21 08:32:40;;;;;;;8.73;2.50;;;18.90;99.90;;;;;;5068189;28;20066;-78
2022/06/21 08:35:25;;;;;;;9.02;2.15;;;19.10;99.90;;;;;;5049939;28;20059;-78
2022/06/21 08:38:08;;;;;;;7.80;2.10;;;19.30;99.90;;;;;;5051573;28;20040;-79
2022/06/21 08:40:45;;;;;;;6.43;1.88;;;19.40;99.90;;;;;;5067885;28;20040;-78
2022/06/21 08:43:14;;;;;;;6.93;2.22;;;19.40;99.90;;;;;;5075938;28;20264;-78
2022/06/21 08:46:08;;;;;;;7.38;2.15;;;19.10;99.90;;;;;;5054946;28;20093;-78
2022/06/21 08:48:56;;;;;;;8.63;2.08;;;18.80;99.90;;;;;;5068046;28;20402;-78
2022/06/21 08:51:54;;;;;;;7.75;1.90;;;18.70;99.90;;;;;;5060380;28;20040;-78
2022/06/21 08:54:40;;;;;;;7.47;2.03;;;18.60;99.90;;;;;;5087381;28;20039;-79
2022/06/21 08:57:20;;;;;;;6.60;2.20;;;18.70;99.90;;;;;;5071669;28;20048;-78
2022/06/21 09:00:09;;;;;;;7.82;2.10;;;18.70;99.90;;;;;;5087404;28;20072;-78
2022/06/21 09:03:08;;;;;;;7.85;2.05;;;18.70;99.90;;;;;;5070782;28;20566;-78
2022/06/21 09:06:09;;;;;;;7.20;1.95;;;18.90;99.90;;;;;;5087945;28;20115;-78
2022/06/21 09:09:04;;;;;;;8.98;1.90;;;18.90;99.90;;;;;;5079412;28;20056;-78
2022/06/21 09:11:42;;;;;;;5.97;1.80;;;19.10;99.90;;;;;;5058958;28;20056;-78
2022/06/21 09:14:24;;;;;;;8.85;2.00;;;19.20;99.90;;;;;;5070174;28;20032;-79
2022/06/21 09:16:59;;;;;;;6.70;1.80;;;19.30;99.90;;;;;;5056235;28;20444;-78
2022/06/21 09:19:49;;;;;;;5.88;1.80;;;19.60;99.90;;;;;;5050276;28;20530;-78
2022/06/21 09:22:21;;;;;;;6.53;1.90;;;19.70;99.90;;;;;;5050892;28;20465;-78
2022/06/21 09:25:18;;;;;;;9.05;2.20;;;19.80;99.90;;;;;;5050380;28;20101;-80
2022/06/21 09:27:48;;;;;;;7.25;2.10;;;19.80;99.90;;;;;;5076733;28;20502;-79
2022/06/21 09:30:34;;;;;;;7.55;2.10;;;19.90;99.90;;;;;;5070552;28;20085;-78
2022/06/21 09:33:31;;;;;;;7.28;1.90;;;20.00;99.90;;;;;;5070391;28;20176;-80
2022/06/21 09:36:23;;;;;;;6.20;1.80;;;20.20;99.90;;;;;;5070877;28;20040;-78
2022/06/21 09:38:56;;;;;;;5.63;1.90;;;20.20;99.90;;;;;;5087140;28;20127;-79
2022/06/21 09:41:31;;;;;;;5.65;1.70;;;20.30;99.90;;;;;;5087759;28;20367;-78
2022/06/21 09:44:14;;;;;;;5.43;1.67;;;20.40;99.90;;;;;;5063001;28;20501;-78
2022/06/21 09:47:05;;;;;;;5.32;1.80;;;20.50;99.90;;;;;;5054235;28;20044;-78
2022/06/21 09:49:51;;;;;;;7.43;2.20;;;20.50;99.90;;;;;;5054401;28;20094;-79
2022/06/21 09:52:39;;;;;;;7.38;1.92;;;20.50;99.90;;;;;;5079135;28;20115;-78
2022/06/21 09:55:13;;;;;;;5.80;1.65;;;20.40;99.90;;;;;;5074521;28;20043;-79
2022/06/21 09:57:48;;;;;;;6.38;1.92;;;20.40;99.90;;;;;;5091191;28;20039;-79
2022/06/21 10:00:42;;;;;;;5.95;1.60;;;20.30;99.90;;;;;;5091519;28;20036;-79
2022/06/21 10:03:43;;;;;;;5.95;1.90;;;20.00;99.90;;;;;;5091105;28;20431;-79
2022/06/21 10:06:35;;;;;;;6.82;1.85;;;20.00;99.90;;;;;;5091227;28;20039;-80
2022/06/21 10:09:22;;;;;;;6.00;1.80;;;20.00;99.90;;;;;;5074507;28;20040;-79
2022/06/21 10:12:07;;;;;;;6.10;1.90;;;20.20;99.90;;;;;;5068893;28;20098;-79
2022/06/21 10:14:38;;;;;;;7.78;1.80;;;20.30;99.90;;;;;;5060257;28;20062;-78
2022/06/21 10:17:22;;;;;;;5.95;1.90;;;20.30;99.90;;;;;;5054544;28;20070;-78
2022/06/21 10:20:15;;;;;;;7.15;1.77;;;20.30;99.90;;;;;;5070449;28;20119;-79
2022/06/21 10:22:43;;;;;;;7.75;1.80;;;20.60;99.90;;;;;;5070882;28;20051;-79
2022/06/21 10:25:12;;;;;;;5.75;1.65;;;20.60;99.90;;;;;;5053664;28;20143;-78
2022/06/21 10:27:56;;;;;;;8.10;1.73;;;20.80;99.90;;;;;;5067266;28;20463;-79
2022/06/21 10:30:46;;;;;;;8.05;2.00;;;21.00;99.90;;;;;;5074185;28;20044;-79
2022/06/21 10:33:33;;;;;;;5.57;1.60;;;21.20;99.90;;;;;;5073487;28;20073;-79
2022/06/21 10:36:15;;;;;;;5.32;1.63;;;21.30;99.90;;;;;;5091089;28;20066;-79
2022/06/21 10:39:09;;;;;;;5.70;1.77;;;21.40;99.90;;;;;;5073490;28;20039;-79
2022/06/21 10:45:47;;;;;;;6.50;1.75;;;21.60;99.90;;;;;;5013055;28;20041;-78
2022/06/21 10:48:34;;;;;;;5.05;1.80;;;21.70;99.90;;;;;;5070263;28;20157;-79
2022/06/21 10:51:22;;;;;;;6.90;1.90;;;21.80;99.90;;;;;;5053344;28;20040;-78
2022/06/21 10:54:03;;;;;;;6.32;1.83;;;21.90;99.90;;;;;;5070292;28;20120;-79
2022/06/21 11:03:24;;;;;;;7.78;1.70;;;22.00;99.90;;;;;;5059235;28;20384;-79
2022/06/21 11:06:22;;;;;;;6.47;1.75;;;22.10;99.90;;;;;;5069189;28;20119;-79
2022/06/21 11:09:14;;;;;;;5.32;1.80;;;21.90;99.90;;;;;;5028155;28;20055;-79
2022/06/21 11:11:57;;;;;;;3.75;1.48;;;21.80;99.90;;;;;;5075478;28;20076;-78
2022/06/21 11:14:42;;;;;;;5.35;1.60;;;21.80;99.90;;;;;;5056214;28;20040;-78
2022/06/21 11:17:32;;;;;;;5.53;1.70;;;21.90;99.90;;;;;;5053218;28;20032;-78
2022/06/21 11:20:29;;;;;;;4.55;1.60;;;21.90;99.90;;;;;;5077767;28;20421;-78
2022/06/21 11:23:06;;;;;;;7.05;2.00;;;21.90;99.90;;;;;;5071557;28;20059;-78
2022/06/21 11:26:10;;;;;;;6.93;2.15;;;21.60;99.90;;;;;;5073258;28;20115;-78
2022/06/21 11:29:29;;;;;;;6.78;2.10;;;21.20;99.90;;;;;;5062281;28;20109;-79
2022/06/21 11:32:13;;;;;;;5.22;1.50;;;20.90;99.90;;;;;;5051784;28;20354;-78
2022/06/21 11:34:39;;;;;;;6.82;1.80;;;20.60;99.90;;;;;;5072640;28;20117;-78
2022/06/21 11:37:31;;;;;;;6.63;1.70;;;20.60;99.90;;;;;;5072989;28;20510;-78
2022/06/21 11:40:41;;;;;;;4.20;1.40;;;20.80;99.90;;;;;;5072074;28;20132;-78
2022/06/21 11:43:24;;;;;;;6.20;1.70;;;21.00;99.90;;;;;;5081186;28;20036;-78
2022/06/21 11:46:22;;;;;;;4.63;1.42;;;21.30;99.90;;;;;;5069093;28;20037;-78
2022/06/21 11:49:33;;;;;;;4.78;1.58;;;21.40;99.90;;;;;;5046290;28;20375;-78
2022/06/21 11:52:23;;;;;;;6.53;1.60;;;21.60;99.90;;;;;;5045883;28;20052;-78
2022/06/21 11:55:25;;;;;;;6.60;1.70;;;21.80;99.90;;;;;;5078142;28;20129;-78
2022/06/21 11:58:09;;;;;;;6.05;1.70;;;22.20;99.90;;;;;;5072133;28;20040;-78
2022/06/21 12:01:03;;;;;;;6.80;1.63;;;22.30;99.90;;;;;;5072393;28;20043;-78
2022/06/21 12:03:37;;;;;;;5.72;1.58;;;22.30;99.90;;;;;;5040396;28;20091;-78
2022/06/21 12:06:34;;;;;;;6.05;1.85;;;22.50;99.90;;;;;;5052062;28;20106;-78
2022/06/21 12:09:25;;;;;;;6.72;1.70;;;22.60;99.90;;;;;;5068027;28;20047;-78
2022/06/21 12:12:00;;;;;;;4.85;1.40;;;22.70;99.90;;;;;;5066374;28;20052;-78
2022/06/21 12:14:53;;;;;;;5.05;1.63;;;22.80;99.90;;;;;;5071966;28;20336;-78
2022/06/21 12:17:46;;;;;;;6.15;1.50;;;22.80;99.90;;;;;;5054719;28;20060;-77
2022/06/21 12:20:38;;;;;;;5.75;1.77;;;23.00;99.90;;;;;;5047480;28;20124;-78
2022/06/21 12:23:18;;;;;;;8.13;2.00;;;23.00;99.90;;;;;;5061507;28;20039;-78
2022/06/21 12:25:45;;;;;;;7.80;1.90;;;23.30;99.90;;;;;;5071472;28;20089;-78
2022/06/21 12:28:33;;;;;;;4.78;1.40;;;23.10;99.90;;;;;;5060339;28;20474;-78
2022/06/21 12:31:03;;;;;;;4.57;1.40;;;23.20;99.90;;;;;;5058902;28;20044;-78
2022/06/21 12:33:39;;;;;;;8.18;1.83;;;23.40;99.90;;;;;;5088079;28;20032;-78
2022/06/21 12:36:13;;;;;;;6.72;1.63;;;23.40;99.90;;;;;;5056170;28;20036;-78
2022/06/21 12:38:46;;;;;;;5.22;1.65;;;23.50;99.90;;;;;;5071243;28;20042;-78
2022/06/21 12:41:33;;;;;;;5.68;1.63;;;23.60;99.90;;;;;;5088528;28;20051;-78
2022/06/21 12:44:54;;;;;;;7.00;1.42;;;23.60;99.90;;;;;;5073006;28;20040;-77
2022/06/21 12:47:45;;;;;;;6.18;1.80;;;23.70;99.90;;;;;;4975565;28;20053;-78
2022/06/21 12:50:26;;;;;;;4.18;1.38;;;23.70;99.90;;;;;;5041000;28;20131;-78
2022/06/21 12:52:59;;;;;;;4.57;1.50;;;23.70;99.90;;;;;;5051011;28;20051;-78
2022/06/21 12:55:50;;;;;;;7.35;1.55;;;23.70;99.90;;;;;;5067603;28;20044;-79
2022/06/21 12:58:51;;;;;;;5.50;1.42;;;23.60;99.90;;;;;;5067487;28;20098;-78
2022/06/21 13:01:29;;;;;;;5.65;1.80;;;23.60;99.90;;;;;;5051410;28;20054;-78
2022/06/21 13:04:35;;;;;;;4.97;1.55;;;23.80;99.90;;;;;;5067266;28;20063;-78
2022/06/21 13:07:31;;;;;;;5.63;1.70;;;23.80;99.90;;;;;;5050990;28;20045;-78
2022/06/21 13:09:57;;;;;;;4.35;1.50;;;23.90;99.90;;;;;;5066942;28;20560;-78
2022/06/21 13:12:48;;;;;;;8.35;1.90;;;23.90;99.90;;;;;;5069920;28;20063;-78
2022/06/21 13:15:52;;;;;;;4.97;1.42;;;24.10;99.90;;;;;;5083643;28;20148;-78
2022/06/21 13:18:39;;;;;;;4.38;1.60;;;24.40;99.90;;;;;;5042785;28;20190;-78
2022/06/21 13:21:23;;;;;;;3.85;1.40;;;24.60;99.90;;;;;;5066988;28;20051;-78
2022/06/21 13:23:58;;;;;;;5.68;1.60;;;24.40;99.90;;;;;;5074151;28;20281;-78
2022/06/21 13:26:46;;;;;;;6.32;1.67;;;24.10;99.70;;;;;;5070071;28;20047;-78
2022/06/21 13:29:17;;;;;;;6.25;1.60;;;24.00;99.90;;;;;;5050646;28;20530;-79
2022/06/21 13:31:49;;;;;;;7.22;1.83;;;23.90;99.90;;;;;;5067454;28;20044;-79
2022/06/21 13:34:36;;;;;;;8.50;1.60;;;23.80;99.90;;;;;;5067126;28;20120;-79
2022/06/21 13:37:16;;;;;;;5.43;1.95;;;23.70;99.90;;;;;;5050945;28;20040;-79
2022/06/21 13:39:45;;;;;;;5.65;1.58;;;23.70;99.90;;;;;;5067054;28;20553;-79
2022/06/21 13:42:37;;;;;;;6.07;1.70;;;23.70;99.90;;;;;;5067743;28;20051;-79
2022/06/21 13:45:03;;;;;;;6.78;1.70;;;23.80;99.90;;;;;;5050207;28;20044;-79
2022/06/21 13:47:41;;;;;;;6.60;1.85;;;23.90;99.90;;;;;;5050582;28;20045;-77
2022/06/21 13:50:33;;;;;;;6.57;1.80;;;23.70;99.30;;;;;;5050240;28;20120;-78
2022/06/21 13:53:05;;;;;;;6.20;1.70;;;23.60;98.40;;;;;;5050122;28;20041;-78
2022/06/21 13:55:33;;;;;;;8.63;2.07;;;23.50;99.70;;;;;;5050614;28;20039;-78
2022/06/21 13:58:13;;;;;;;5.35;1.67;;;23.70;99.90;;;;;;5066865;28;20378;-78
2022/06/21 14:01:23;;;;;;;6.78;1.80;;;23.80;99.90;;;;;;5067269;28;20036;-78
2022/06/21 14:04:13;;;;;;;6.25;1.80;;;23.90;99.70;;;;;;5045940;28;20375;-78
2022/06/21 14:06:57;;;;;;;7.15;1.88;;;24.20;99.90;;;;;;5086979;28;20036;-78
2022/06/21 14:09:35;;;;;;;6.80;1.73;;;24.20;99.70;;;;;;5070420;28;20486;-79